Latest Weather Observations for Mount Boyce

IDN60801

Issued at 3:33 pm EST Friday 29 July 2016 (issued every 30 minutes, with the page automatically refreshed every 10 minutes)

About weather observations | Map of weather stations | Latest weather observations for NSW | Other Formats
Station Details ID: 063292 Name: MOUNT BOYCE AWS Lat: -33.62 Lon: 150.27 Height: 1080.0 m
Data from the previous 72 hours. | See also: Recent months at Mount Boyce
Date/Time
EST
Temp
°C
App
Temp
°C
Dew
Point
°C
Rel
Hum
%
Delta-T
°C
Wind Press
QNH
hPa
Press
MSL
hPa
Rain since
9am
mm
Dir  Spd
km/h
Gust
km/h
Spd
kts
Gust
kts
29/03:30pm 7.7 0.7 2.0 67 2.5 W 28 41 15 22 - - 0.0
29/03:00pm 8.1 1.1 1.7 64 2.8 W 28 37 15 20 - - 0.0
29/02:30pm 8.1 1.5 2.1 66 2.7 W 26 35 14 19 - - 0.0
29/02:00pm 8.0 0.6 1.8 65 2.7 W 30 41 16 22 - - 0.0
29/01:30pm 7.7 1.1 2.2 68 2.4 W 26 33 14 18 - - 0.0
29/01:00pm 8.1 2.8 2.8 69 2.4 W 20 28 11 15 - - 0.0
29/12:30pm 7.5 2.3 2.2 69 2.3 W 19 26 10 14 - - 0.0
29/12:00pm 6.7 1.7 1.6 70 2.2 W 17 24 9 13 - - 0.0
29/11:30am 5.9 0.8 0.5 68 2.3 W 17 22 9 12 - - 0.0
29/11:00am 5.0 -0.1 0.8 74 1.8 W 17 20 9 11 - - 0.0
29/10:30am 4.1 -0.7 0.3 76 1.6 WSW 15 19 8 10 - - 0.0
29/10:00am 2.8 -2.8 -0.1 81 1.2 W 19 24 10 13 - - 0.0
29/09:30am 1.7 -4.0 -0.4 86 0.8 W 19 24 10 13 - - 0.0
29/09:00am 0.6 -4.7 -0.7 91 0.5 W 17 22 9 12 - - 0.2
29/08:30am 0.0 -5.8 -1.3 91 0.5 W 19 20 10 11 - - 0.0
29/08:00am -1.0 -5.7 -1.8 94 0.2 W 13 17 7 9 - - 0.0
29/07:30am -1.0 -5.7 -1.8 94 0.2 W 13 15 7 8 - - 0.0
29/07:00am -1.1 -6.2 -1.8 95 0.2 W 15 19 8 10 - - 0.0
29/06:30am -1.1 -5.8 -1.8 95 0.2 W 13 17 7 9 - - 0.0
29/06:00am -1.2 -5.9 -1.9 95 0.2 W 13 17 7 9 - - 0.0
29/05:30am -0.8 -5.5 -1.9 92 0.4 W 13 17 7 9 - - 0.0
29/05:00am -0.5 -4.8 -1.9 90 0.5 W 11 13 6 7 - - 0.0
29/04:30am 0.4 -3.5 -1.8 85 0.8 W 9 11 5 6 - - 0.0
29/04:00am -0.2 -4.1 -1.3 92 0.4 W 9 13 5 7 - - 0.0
29/03:30am -0.3 -4.5 -1.0 95 0.2 W 11 13 6 7 - - 0.0
29/03:00am -0.3 -5.3 -1.1 94 0.3 W 15 17 8 9 - - 0.0
29/02:30am 0.0 -4.6 -1.1 92 0.4 W 13 15 7 8 - - 0.0
29/02:00am 0.2 -4.4 -1.1 91 0.5 W 13 17 7 9 - - 0.0
29/01:30am 0.2 -5.2 -1.1 91 0.5 W 17 19 9 10 - - 0.0
29/01:00am 0.6 -4.8 -1.0 89 0.6 W 17 19 9 10 - - 0.0
29/12:30am 0.5 -4.8 -0.9 90 0.6 W 17 19 9 10 - - 0.0
29/12:00am 0.7 -4.6 -0.6 91 0.5 W 17 22 9 12 - - 0.0
 
Date/Time
EST
Temp
°C
App
Temp
°C
Dew
Point
°C
Rel
Hum
%
Delta-T
°C
Wind Press
QNH
hPa
Press
MSL
hPa
Rain since
9am
mm
Dir  Spd
km/h
Gust
km/h
Spd
kts
Gust
kts
28/11:30pm 0.7 -4.6 -0.7 90 0.5 W 17 22 9 12 - - 0.0
28/11:00pm 1.1 -4.7 -0.4 90 0.6 W 20 28 11 15 - - 0.0
28/10:30pm 1.0 -5.6 -0.3 91 0.5 W 24 30 13 16 - - 0.0
28/10:00pm 1.2 -5.4 -0.4 89 0.6 W 24 30 13 16 - - 0.0
28/09:30pm 1.6 -5.7 -0.2 88 0.7 W 28 37 15 20 - - 0.0
28/09:00pm 1.8 -5.9 0.0 88 0.7 W 30 39 16 21 - - 0.0
28/08:30pm 1.9 -6.3 0.1 88 0.7 W 33 41 18 22 - - 0.0
28/08:00pm 2.1 -5.5 0.5 89 0.6 W 30 37 16 20 - - 0.0
28/07:30pm 2.2 -5.0 0.4 88 0.7 W 28 37 15 20 - - 0.0
28/07:00pm 2.4 -4.1 0.6 88 0.7 W 24 32 13 17 - - 0.0
28/06:30pm 2.8 -3.3 0.7 86 0.9 W 22 32 12 17 - - 0.0
28/06:00pm 3.0 -2.6 0.9 86 0.9 W 20 28 11 15 - - 0.0
28/05:30pm 3.9 -2.5 1.1 82 1.2 W 24 39 13 21 - - 0.0
28/05:00pm 5.4 -0.9 1.3 75 1.7 WSW 24 37 13 20 - - 0.0
28/04:30pm 6.8 0.6 2.3 73 2.0 WSW 24 37 13 20 - - 0.0
28/04:00pm 7.6 1.0 2.3 69 2.4 W 26 39 14 21 - - 0.0
28/03:30pm 8.0 0.3 2.3 67 2.5 W 32 44 17 24 - - 0.0
28/03:00pm 9.3 3.3 3.1 65 2.8 W 24 37 13 20 - - 0.0
28/02:30pm 9.4 3.4 3.2 65 2.9 W 24 35 13 19 - - 0.0
28/02:00pm 9.5 2.7 3.0 64 3.0 WSW 28 41 15 22 - - 0.0
28/01:30pm 9.0 2.2 3.0 66 2.7 W 28 39 15 21 - - 0.0
28/01:00pm 8.6 2.8 2.4 65 2.8 W 22 35 12 19 - - 0.0
28/12:30pm 8.5 3.7 2.7 67 2.6 W 17 24 9 13 - - 0.0
28/12:00pm 7.9 2.5 2.6 69 2.4 W 20 26 11 14 - - 0.0
28/11:30am 7.1 2.6 2.0 70 2.2 W 15 20 8 11 - - 0.0
28/11:00am 6.3 2.1 1.6 72 2.0 W 13 20 7 11 - - 0.0
28/10:30am 5.5 0.5 1.6 76 1.7 W 17 22 9 12 - - 0.0
28/10:00am 4.3 -1.1 1.0 79 1.4 W 19 24 10 13 - - 0.0
28/09:30am 3.5 -1.6 0.9 83 1.1 W 17 22 9 12 - - 0.0
28/09:00am 2.6 -2.9 0.5 86 0.8 W 19 24 10 13 - - 0.4
28/08:30am 1.8 -3.3 0.8 93 0.4 W 17 20 9 11 - - 0.4
28/08:00am 1.2 -4.3 0.5 95 0.3 W 19 24 10 13 - - 0.4
28/07:30am 1.4 -4.3 0.5 94 0.4 W 20 28 11 15 - - 0.4
28/07:00am 1.5 -4.0 0.3 92 0.5 W 19 26 10 14 - - 0.4
28/06:30am 1.5 -4.2 0.5 93 0.4 W 20 32 11 17 - - 0.4
28/06:00am 1.7 -4.8 0.5 92 0.5 W 24 32 13 17 - - 0.4
28/05:30am 1.8 -4.3 0.6 92 0.5 W 22 35 12 19 - - 0.4
28/05:00am 2.3 -2.8 1.0 91 0.5 W 17 26 9 14 - - 0.4
28/04:30am 1.8 -2.5 1.1 95 0.3 W 13 20 7 11 - - 0.4
28/04:00am 2.2 -3.4 1.3 94 0.4 WSW 20 30 11 16 - - 0.4
28/03:30am 2.3 -3.3 1.3 93 0.4 W 20 30 11 16 - - 0.4
28/03:00am 2.4 -3.9 1.4 93 0.4 WSW 24 35 13 19 - - 0.4
28/02:56am 2.4 -3.9 1.4 93 0.4 WSW 24 35 13 19 - - 0.4
28/02:30am 2.6 -4.1 1.4 92 0.5 WSW 26 37 14 20 - - 0.4
28/02:00am 2.7 -4.0 1.5 92 0.5 W 26 41 14 22 - - 0.4
28/01:30am 2.6 -3.7 1.6 93 0.4 W 24 35 13 19 - - 0.4
28/01:00am 2.6 -3.3 1.6 93 0.4 WSW 22 33 12 18 - - 0.4
28/12:30am 2.8 -4.3 1.5 91 0.5 WSW 28 46 15 25 - - 0.4
28/12:00am 2.9 -4.6 1.4 90 0.6 W 30 44 16 24 - - 0.4
 
Date/Time
EST
Temp
°C
App
Temp
°C
Dew
Point
°C
Rel
Hum
%
Delta-T
°C
Wind Press
QNH
hPa
Press
MSL
hPa
Rain since
9am
mm
Dir  Spd
km/h
Gust
km/h
Spd
kts
Gust
kts
27/11:34pm 2.9 -4.2 1.3 89 0.7 W 28 46 15 25 - - 0.4
27/11:30pm 2.8 -3.9 1.2 89 0.7 W 26 37 14 20 - - 0.4
27/11:00pm 3.1 -4.4 1.3 88 0.7 W 30 44 16 24 - - 0.4
27/10:30pm 3.4 -3.7 1.4 87 0.8 W 28 41 15 22 - - 0.4
27/10:04pm 3.6 -3.5 1.6 87 0.8 W 28 48 15 26 - - 0.4
27/10:00pm 3.6 -3.1 1.6 87 0.8 W 26 44 14 24 - - 0.4
27/09:40pm 3.7 -3.4 1.6 86 0.9 W 28 48 15 26 - - 0.4
27/09:38pm 3.7 -3.4 1.6 86 0.9 W 28 48 15 26 - - 0.4
27/09:30pm 3.6 -3.1 1.3 85 1.0 W 26 39 14 21 - - 0.4
27/09:04pm 3.7 -4.1 1.4 85 1.0 W 32 50 17 27 - - 0.4
27/09:00pm 3.7 -4.2 1.3 84 1.0 W 32 43 17 23 - - 0.4
27/08:48pm 3.7 -3.8 1.3 84 1.0 W 30 48 16 26 - - 0.4
27/08:30pm 3.9 -4.6 1.1 82 1.2 W 35 52 19 28 - - 0.4
27/08:00pm 3.7 -5.9 0.9 82 1.2 W 41 59 22 32 - - 0.4
27/07:38pm 3.6 -4.2 1.5 86 0.9 W 32 52 17 28 - - 0.4
27/07:30pm 3.5 -4.3 1.5 87 0.8 W 32 46 17 25 - - 0.4
27/07:09pm 3.7 -4.3 1.4 85 1.0 WSW 33 59 18 32 - - 0.4
27/07:00pm 3.7 -4.1 1.6 86 0.9 WSW 32 48 17 26 - - 0.4
27/06:51pm 3.8 -4.6 1.7 86 0.9 WSW 35 50 19 27 - - 0.4
27/06:30pm 3.7 -4.0 2.1 89 0.7 W 32 50 17 27 - - 0.4
27/06:07pm 4.0 -5.0 2.2 88 0.8 W 39 57 21 31 - - 0.4
27/06:00pm 4.0 -5.4 2.2 88 0.8 W 41 56 22 30 - - 0.4
27/05:43pm 4.3 -3.4 2.3 87 0.9 W 32 50 17 27 - - 0.4
27/05:30pm 4.3 -3.6 2.5 88 0.8 W 33 48 18 26 - - 0.4
27/05:00pm 4.8 -2.8 2.8 87 0.9 W 32 50 17 27 - - 0.4
27/04:57pm 4.8 -2.8 2.7 86 0.9 W 32 50 17 27 - - 0.4
27/04:54pm 4.9 -2.7 2.6 85 1.0 W 32 46 17 25 - - 0.4
27/04:30pm 5.2 -2.7 2.2 81 1.3 W 33 50 18 27 - - 0.4
27/04:09pm 5.6 -3.0 2.4 80 1.4 W 37 61 20 33 - - 0.4
27/04:00pm 5.7 -3.0 2.2 78 1.5 W 37 54 20 29 - - 0.4
27/03:30pm 6.3 -1.0 2.6 77 1.6 W 30 50 16 27 - - 0.4
27/03:22pm 6.7 -0.4 3.3 79 1.5 W 30 48 16 26 - - 0.4
27/03:00pm 6.2 -1.0 3.2 81 1.3 W 30 50 16 27 - - 0.4
27/02:30pm 5.9 -1.9 2.9 81 1.3 W 33 54 18 29 - - 0.4
27/02:00pm 5.6 -3.8 2.3 79 1.4 W 41 63 22 34 - - 0.4
27/01:30pm 5.8 -1.4 2.8 81 1.3 W 30 59 16 32 - - 0.4
27/01:23pm 5.8 -1.8 2.6 80 1.4 W 32 54 17 29 - - 0.4
27/01:00pm 5.5 -3.2 2.2 79 1.4 W 37 63 20 34 - - 0.4
27/12:30pm 5.4 -3.7 2.1 79 1.4 W 39 63 21 34 - - 0.4
27/12:00pm 6.0 -4.5 1.2 71 2.0 W 46 80 25 43 - - 0.4
27/11:30am 5.3 -4.7 1.2 75 1.7 W 43 65 23 35 - - 0.4
27/11:00am 5.1 -6.6 0.9 74 1.8 W 52 80 28 43 - - 0.4
27/10:30am 5.3 -4.5 2.1 80 1.4 W 43 65 23 35 - - 0.4
27/10:26am 5.3 -4.7 2.3 81 1.3 W 44 70 24 38 - - 0.4
27/10:15am 5.0 -5.8 1.8 80 1.4 W 48 80 26 43 - - 0.4
27/10:00am 4.7 -4.5 3.5 92 0.5 W 41 61 22 33 - - 0.4
27/09:50am 4.3 -5.8 3.7 96 0.3 W 46 72 25 39 - - 0.4
27/09:30am 4.0 -5.2 3.6 97 0.2 W 41 65 22 35 - - 0.4
27/09:22am 4.1 -4.7 3.5 96 0.3 W 39 59 21 32 - - 0.0
27/09:21am 4.1 -4.7 3.5 96 0.3 W 39 54 21 29 - - 0.0
27/09:00am 4.3 -4.5 3.4 94 0.4 W 39 69 21 37 - - 0.2
27/08:30am 4.8 -3.7 3.0 88 0.8 W 37 61 20 33 - - 0.2
27/08:00am 4.4 -3.4 2.9 90 0.7 W 33 54 18 29 - - 0.2
27/07:30am 4.3 -3.3 2.7 89 0.7 W 32 57 17 31 - - 0.2
27/07:12am 4.4 -3.3 2.4 87 0.9 W 32 50 17 27 - - 0.2
27/07:10am 4.4 -3.5 2.4 87 0.9 W 33 50 18 27 - - 0.2
27/07:00am 4.5 -3.8 2.2 85 1.0 WNW 35 63 19 34 - - 0.2
27/06:47am 4.3 -3.4 2.2 86 0.9 W 32 59 17 32 - - 0.2
27/06:30am 4.3 -3.1 2.0 85 1.0 W 30 54 16 29 - - 0.2
27/06:10am 4.4 -3.3 2.3 86 0.9 W 32 50 17 27 - - 0.2
27/06:00am 4.4 -3.3 2.1 85 1.0 W 32 44 17 24 - - 0.2
27/05:30am 4.4 -3.3 2.1 85 1.0 W 32 46 17 25 - - 0.2
27/05:00am 4.0 -3.9 2.2 88 0.8 W 33 54 18 29 - - 0.2
27/04:40am 3.5 -3.9 2.0 90 0.6 W 30 48 16 26 - - 0.2
27/04:30am 3.5 -4.2 2.2 91 0.6 W 32 44 17 24 - - 0.2
27/04:25am 3.5 -4.4 2.0 90 0.6 W 33 59 18 32 - - 0.2
27/04:00am 3.5 -5.6 2.0 90 0.6 W 39 59 21 32 - - 0.2
27/03:56am 3.4 -5.7 2.1 91 0.6 W 39 57 21 31 - - 0.2
27/03:37am 3.7 -5.4 1.9 88 0.8 W 39 57 21 31 - - 0.0
27/03:30am 4.8 -4.4 1.5 79 1.4 W 39 63 21 34 - - 0.0
27/03:00am 4.7 -3.5 0.3 73 1.8 W 33 56 18 30 - - 0.0
27/02:30am 4.5 -3.5 0.3 74 1.7 W 32 52 17 28 - - 0.0
27/02:00am 3.1 -4.4 1.0 86 0.9 W 30 50 16 27 - - 0.0
27/01:34am 3.1 -6.4 1.5 89 0.7 W 41 69 22 37 - - 0.0
27/01:30am 3.1 -6.0 1.8 91 0.5 WSW 39 69 21 37 - - 0.0
27/01:17am 4.0 -3.3 2.2 88 0.8 W 30 52 16 28 - - 0.0
27/01:13am 4.1 -2.9 2.1 87 0.9 W 28 44 15 24 - - 0.0
27/01:00am 4.2 -3.7 2.1 86 0.9 W 33 52 18 28 - - 0.0
27/12:48am 4.1 -3.3 2.1 87 0.9 WSW 30 48 16 26 - - 0.0
27/12:47am 4.1 -3.6 2.1 87 0.9 W 32 48 17 26 - - 0.0
27/12:30am 4.2 -3.8 1.9 85 1.0 W 33 54 18 29 - - 0.0
27/12:00am 4.1 -3.9 1.5 83 1.1 W 33 54 18 29 - - 0.0
 
Date/Time
EST
Temp
°C
App
Temp
°C
Dew
Point
°C
Rel
Hum
%
Delta-T
°C
Wind Press
QNH
hPa
Press
MSL
hPa
Rain since
9am
mm
Dir  Spd
km/h
Gust
km/h
Spd
kts
Gust
kts
26/11:32pm 4.6 -4.5 1.6 81 1.3 W 39 65 21 35 - - 0.0
26/11:30pm 4.6 -3.8 1.5 80 1.3 W 35 65 19 35 - - 0.0
26/11:17pm 4.7 -2.4 1.6 80 1.3 W 28 52 15 28 - - 0.0
26/11:00pm 4.1 -1.8 1.5 83 1.1 W 22 35 12 19 - - 0.0
26/10:31pm 4.4 -2.6 1.8 83 1.1 W 28 48 15 26 - - 0.0
26/10:30pm 4.4 -2.2 1.8 83 1.1 W 26 44 14 24 - - 0.0
26/10:00pm 4.2 -3.2 2.1 86 0.9 W 30 44 16 24 - - 0.0
26/09:53pm 4.2 -3.7 2.1 86 0.9 W 33 46 18 25 - - 0.0
26/09:37pm 4.2 -3.5 2.1 86 0.9 W 32 50 17 27 - - 0.0
26/09:30pm 4.2 -3.8 1.9 85 1.0 W 33 48 18 26 - - 0.0
26/09:03pm 4.4 -2.9 2.3 86 0.9 W 30 48 16 26 - - 0.0
26/09:00pm 4.4 -2.9 2.3 86 0.9 W 30 48 16 26 - - 0.0
26/08:32pm 4.6 -2.4 2.0 83 1.1 W 28 46 15 25 - - 0.0
26/08:30pm 4.6 -2.0 2.0 83 1.1 W 26 44 14 24 - - 0.0
26/08:00pm 4.8 -2.6 1.7 80 1.3 W 30 44 16 24 - - 0.0
26/07:47pm 4.9 -2.2 1.4 78 1.5 W 28 46 15 25 - - 0.0
26/07:30pm 4.9 -3.0 1.0 76 1.6 W 32 48 17 26 - - 0.0
26/07:00pm 5.0 -2.9 0.9 75 1.7 W 32 52 17 28 - - 0.0
26/06:30pm 5.0 -2.9 0.8 74 1.8 W 32 54 17 29 - - 0.0
26/06:00pm 5.0 -3.6 0.2 71 2.0 W 35 59 19 32 - - 0.0
26/05:30pm 5.2 -2.9 0.8 73 1.8 W 33 54 18 29 - - 0.0
26/05:00pm 5.6 -1.5 1.2 73 1.9 W 28 46 15 25 - - 0.0
26/04:42pm 5.6 -1.5 1.5 75 1.8 W 28 50 15 27 - - 0.0
26/04:30pm 5.7 -1.3 2.0 77 1.6 W 28 37 15 20 - - 0.0
26/04:00pm 6.0 -1.4 2.1 76 1.7 W 30 48 16 26 - - 0.0
26/03:32pm 6.3 -1.5 1.8 73 1.9 W 32 50 17 27 - - 0.0

Other Formats:

Comma delimited format used in spreadsheet applications
http://www.bom.gov.au/fwo/IDN60801/IDN60801.94743.axf

JavaScript Object Notation format (JSON) in row-major order
http://www.bom.gov.au/fwo/IDN60801/IDN60801.94743.json